x

Onslow Bay Outer, Nc (41036) Wave Buoy

11:50am - Sun 20th Apr 2014 All times are EDT. -4 hours from GMT.

  • Sig Wave height 9.8ft
  • Swell Direction
  • Peak Period 7s
  • Average Period 6s
  • Wind
    36mph, 45mph gusts
  • Sea Temp 64°f
  • Air Temp 59°f
  • Sea Pressure 1015.3mb
  • Onslow Bay Outer, Nc
  • Onslow Bay Outer, Nc

More Historic Weather Station data

Upgrade to MSW Pro to gain access to the past 30 days of data for over 8000 Wavebouys and Weather Stations around the globe.

Join Pro

Comparision Forecast

View Surf forecast
   
Sun 04/20 11:50am 10ft 7s 6s 36 45 mph 1015.3mb 64f 59f
11:20am  -   -   -  34 45 mph 1015.5mb 64f 58f
10:50am 10ft 6s 6s 34 43 mph 1015.7mb 64f 58f
10:20am  -   -   -  34 40 mph 1015.8mb 64f 58f
9:50am 10ft 7s 6s 31 40 mph 1015.7mb 64f 58f
9:20am  -   -   -  31 38 mph 1015.8mb 64f 57f
8:50am 10ft 10s 6s 34 40 mph 1015.5mb 64f 58f
8:20am  -   -   -  31 38 mph 1015.7mb 64f 58f
7:50am 10ft 8s 6s 34 38 mph 1015.7mb 64f 58f
7:20am  -   -   -  31 36 mph 1015.7mb 63f 59f
6:50am 11ft 6s 6s 34 43 mph 1015.1mb 63f 59f
6:20am  -   -   -  36 45 mph 1014.3mb 63f 59f
5:50am 10ft 8s 6s 38 45 mph 1013mb 64f 59f
5:20am  -   -   -  36 43 mph 1013.6mb 64f 60f
4:50am 10ft 6s 6s 38 47 mph 1014mb 64f 60f
4:20am  -   -   -  34 43 mph 1014.7mb 65f 60f
3:50am 9ft 6s 6s 34 43 mph 1014.7mb 65f 60f
3:20am  -   -   -  36 43 mph 1015.2mb 65f 59f
2:50am 10.5ft 7s 6s 36 43 mph 1015.2mb 66f 59f
2:20am  -   -   -  36 43 mph 1015.4mb 66f 58f
1:50am 9ft 8s 6s 34 43 mph 1016.1mb 66f 59f
1:20am  -   -   -  34 40 mph 1016.5mb 66f 59f
12:50am 10ft 6s 6s 36 43 mph 1016.3mb 66f 59f
12:20am  -   -   -  34 40 mph 1016.3mb 66f 59f
Sat 04/19 11:50pm 9.5ft 6s 6s 34 40 mph 1016.3mb 65f 58f
11:20pm  -   -   -  36 43 mph 1015.9mb 66f 58f
10:50pm 9ft 7s 6s 36 43 mph 1016.3mb 66f 58f
10:20pm  -   -   -  34 43 mph 1017.1mb 67f 58f
9:50pm 8ft 6s 5s 34 38 mph 1017.4mb 67f 57f
9:20pm  -   -   -  34 40 mph 1017mb 67f 58f
8:50pm 8.5ft 6s 5s 34 40 mph 1016.8mb 67f 58f
7:50pm 9ft 7s 6s 31 40 mph 1016.6mb 67f 59f
7:20pm  -   -   -  31 38 mph 1016.2mb 66f 59f
6:50pm 9ft 7s 6s 34 40 mph 1016.2mb 66f 59f
6:20pm  -   -   -  34 40 mph 1016mb 67f 59f
5:50pm 9.5ft 8s 6s 36 43 mph 1015.2mb 67f 59f
5:20pm  -   -   -  34 40 mph 1015.5mb 67f 60f
4:50pm 9.5ft 7s 5s 36 43 mph 1014.4mb 67f 59f
4:20pm  -   -   -  38 51 mph 1013.7mb 67f 60f
3:50pm 9ft 8s 6s 38 49 mph 1013.9mb 67f 60f
3:20pm  -   -   -  36 43 mph 1015.6mb 67f 62f
2:50pm 9ft 6s 5s 34 43 mph 1015.9mb 67f 61f
2:20pm  -   -   -  36 45 mph 1015.3mb 68f 62f
1:50pm 8ft 7s 5s 25 34 mph 1015.9mb 68f 61f
1:20pm  -   -   -  29 40 mph 1015.6mb 67f 62f
12:50pm 8ft 7s 5s 29 36 mph 1016mb 66f 61f
12:20pm  -   -   -  31 38 mph 1015.9mb 65f 61f
11:50am 8ft 7s 5s 31 38 mph 1016.1mb 66f 59f
11:20am  -   -   -  31 40 mph 1016.2mb 66f 60f
10:50am 8ft 6s 5s 31 38 mph 1015.8mb 66f 59f
10:20am  -   -   -  31 40 mph 1016.1mb 66f 59f
9:50am 8ft 6s 5s 34 40 mph 1015.2mb 67f 59f
9:20am  -   -   -  31 40 mph 1015.6mb 65f 58f
8:50am 7.5ft 6s 5s 29 38 mph 1016.7mb 65f 58f
8:20am  -   -   -  29 38 mph 1016.7mb 65f 58f
7:50am 7.5ft 6s 5s 31 38 mph 1016.4mb 65f 58f
7:20am  -   -   -  29 36 mph 1016.9mb 61f 58f
6:50am 8ft 6s 5s 31 36 mph 1016mb 61f 57f
6:20am  -   -   -  29 34 mph 1016mb 61f 58f
5:50am 8ft 7s 5s 27 34 mph 1015.6mb 62f 58f
5:20am  -   -   -  27 31 mph 1016.1mb 62f 58f
4:50am 8ft 6s 5s 25 31 mph 1016.5mb 63f 58f
4:20am  -   -   -  25 31 mph 1016.6mb 63f 58f
3:50am 7.5ft 6s 5s 29 34 mph 1016.5mb 63f 58f
3:20am  -   -   -  27 34 mph 1017.1mb 64f 58f
2:50am 7.5ft 7s 5s 25 31 mph 1017.8mb 64f 58f
2:20am  -   -   -  27 31 mph 1018.2mb 64f 58f
1:50am 7.5ft 6s 5s 25 31 mph 1018.6mb 64f 58f
1:20am  -   -   -  31 38 mph 1018.3mb 65f 57f
12:50am 6.5ft 7s 5s 29 36 mph 1019.2mb 65f 57f
12:20am  -   -   -  29 38 mph 1019.7mb 65f 57f
Fri 04/18 11:50pm 6.5ft 6s 5s 27 34 mph 1020.4mb 65f 56f
11:20pm  -   -   -  27 31 mph 1021.2mb 65f 56f
10:50pm 6.5ft 6s 5s 25 31 mph 1021.9mb 65f 57f
10:20pm  -   -   -  27 31 mph 1021.9mb 65f 58f
9:50pm 7ft 6s 5s 25 31 mph 1022.2mb 65f 58f
9:20pm  -   -   -  27 34 mph 1021.7mb 65f 58f
8:50pm 7.5ft 7s 6s 29 34 mph 1021.6mb 65f 57f
8:20pm  -   -   -  27 34 mph 1021.7mb 65f 58f
7:50pm 7ft 7s 5s 27 34 mph 1021.9mb 65f 58f
7:20pm  -   -   -  27 34 mph 1022mb 65f 58f
6:50pm 7ft 6s 5s 29 36 mph 1022mb 65f 58f
6:20pm  -   -   -  29 34 mph 1022.4mb 65f 58f
5:50pm 7ft 10s 5s 25 27 mph 1023mb 65f 58f
5:20pm  -   -   -  25 29 mph 1023mb 65f 58f
4:50pm 7ft 9s 5s 25 29 mph 1023.2mb 66f 58f
4:20pm  -   -   -  25 29 mph 1023.3mb 62f 58f
3:50pm 6.5ft 10s 6s 25 27 mph 1023.9mb 62f 58f
3:20pm  -   -   -  25 29 mph 1024.7mb 62f 58f
2:50pm 6ft 6s 5s 22 27 mph 1025.3mb 62f 58f
2:20pm  -   -   -  22 25 mph 1025.8mb 62f 58f
1:50pm 6.5ft 11s 6s 20 25 mph 1026.1mb 62f 57f
1:20pm  -   -   -  20 25 mph 1026.8mb 62f 57f
12:50pm 7ft 11s 6s 20 25 mph 1027.1mb 62f 56f
12:20pm  -   -   -  20 25 mph 1027.1mb 62f 55f
11:50am 6.5ft 10s 6s 22 25 mph 1027.1mb 62f 55f
11:20am  -   -   -  22 25 mph 1027.2mb 62f 55f
10:50am 7ft 10s 6s 25 27 mph 1027.1mb 62f 55f
10:20am  -   -   -  22 29 mph 1027.2mb 62f 54f
9:50am 6.5ft 10s 6s 22 27 mph 1026.9mb 62f 54f
9:20am  -   -   -  22 25 mph 1026.9mb 62f 53f
8:50am 6.5ft 6s 6s 25 29 mph 1026.8mb 62f 53f
8:20am  -   -   -  20 27 mph 1027.4mb 62f 53f
7:50am 6.5ft 6s 5s 22 25 mph 1027.2mb 62f 53f
7:20am  -   -   -  22 27 mph 1027.3mb 62f 52f
6:50am 6ft 10s 5s 25 29 mph 1026.5mb 62f 52f
6:20am  -   -   -  22 25 mph 1027.2mb 62f 52f
5:50am 6.5ft 9s 5s 22 27 mph 1027.3mb 62f 52f
5:20am  -   -   -  22 27 mph 1027.1mb 62f 52f
4:50am 7ft 9s 5s 25 29 mph 1026.6mb 62f 53f
4:20am  -   -   -  27 31 mph 1026.9mb 62f 53f
3:50am 7ft 10s 6s 27 31 mph 1027.3mb 62f 54f
3:20am  -   -   -  25 29 mph 1027.3mb 62f 54f
2:50am 7ft 7s 6s 27 31 mph 1026.8mb 62f 53f
2:20am  -   -   -  27 31 mph 1027.2mb 62f 53f
1:50am 7ft 7s 5s 29 34 mph 1027.7mb 62f 53f
1:20am  -   -   -  27 34 mph 1027.9mb 63f 53f
12:50am 6.5ft 9s 5s 29 34 mph 1028.4mb 63f 53f
12:20am  -   -   -  27 31 mph 1029.2mb 63f 54f
Thu 04/17 11:50pm 7ft 6s 5s 27 31 mph 1029.3mb 63f 54f
11:20pm  -   -   -  29 34 mph 1029.4mb 63f 54f
10:50pm 7.5ft 7s 6s 27 34 mph 1029.1mb 63f 55f
10:20pm  -   -   -  29 36 mph 1028.9mb 64f 55f
9:50pm 7ft 9s 5s 29 34 mph 1029mb 64f 56f
9:20pm  -   -   -  29 34 mph 1029.2mb 64f 56f
8:50pm 7.5ft 7s 5s 29 34 mph 1028.8mb 64f 57f
8:20pm  -   -   -  27 31 mph 1028.8mb 64f 57f
7:50pm 7ft 6s 6s 27 34 mph 1028.3mb 63f 57f
7:20pm  -   -   -  27 31 mph 1028.4mb 63f 58f
6:50pm 7ft 9s 5s 27 31 mph 1028.9mb 63f 58f
6:20pm  -   -   -  27 31 mph 1029.3mb 63f 58f
5:50pm 7ft 10s 5s 25 31 mph 1029.4mb 63f 59f
5:20pm  -   -   -  27 31 mph 1029.2mb 63f 59f
4:50pm 7ft 7s 5s 27 31 mph 1029.4mb 63f 59f
4:20pm  -   -   -  27 31 mph 1029.7mb 63f 59f
3:50pm 6.5ft 9s 5s 27 31 mph 1030mb 63f 58f
2:50pm 7ft 9s 5s 27 31 mph 1030.4mb 63f 58f
2:20pm  -   -   -  27 31 mph 1030.8mb 63f 58f
1:50pm 7ft 8s 5s 27 31 mph 1030.5mb 63f 58f
1:20pm  -   -   -  27 31 mph 1030.6mb 63f 57f
12:50pm 7ft 9s 6s 27 31 mph 1030.8mb 63f 57f
12:20pm  -   -   -  27 31 mph 1031.1mb 63f 56f
11:50am 7ft 10s 5s 25 29 mph 1031.4mb 63f 56f
11:20am  -   -   -  27 31 mph 1031.2mb 64f 56f
10:50am 7.5ft 7s 6s 27 34 mph 1031mb 64f 55f
10:20am  -   -   -  27 31 mph 1030.9mb 64f 54f
9:50am 7ft 11s 5s 27 31 mph 1030.8mb 64f 53f
9:20am  -   -   -  27 31 mph 1030.3mb 64f 53f
8:50am 6.5ft 6s 5s 25 31 mph 1030.2mb 64f 52f
8:20am  -   -   -  27 31 mph 1029.9mb 64f 52f
7:50am 6ft 6s 5s 27 34 mph 1029.4mb 64f 52f
7:20am  -   -   -  25 27 mph 1029.7mb 64f 51f
6:50am 6ft 10s 5s 22 27 mph 1029.5mb 64f 51f
6:20am  -   -   -  25 27 mph 1029.1mb 64f 51f
5:50am 6ft 10s 5s 25 31 mph 1029mb 64f 51f
5:20am  -   -   -  25 29 mph 1028.9mb 64f 50f
4:50am 5.5ft 11s 5s 22 27 mph 1029mb 63f 50f
3:50am 6ft 10s 5s 25 29 mph 1029mb 64f 49f
3:20am  -   -   -  25 29 mph 1029mb 64f 50f
2:50am 6ft 10s 5s 25 29 mph 1028.8mb 64f 50f
2:20am  -   -   -  25 31 mph 1029.1mb 65f 50f
1:50am 6ft 7s 5s 25 31 mph 1028.9mb 65f 50f
1:20am  -   -   -  27 34 mph 1029mb 65f 50f
12:50am 6ft 8s 5s 22 29 mph 1029.3mb 65f 50f
12:20am  -   -   -  22 27 mph 1029.7mb 65f 49f
Wed 04/16 11:50pm 6ft 11s 5s 25 29 mph 1029.6mb 65f 48f
11:20pm  -   -   -  27 34 mph 1029.1mb 65f 49f
10:50pm 7ft 7s 5s 27 34 mph 1029.1mb 65f 49f
10:20pm  -   -   -  27 31 mph 1029.3mb 66f 49f
9:50pm 7ft 6s 6s 27 34 mph 1029.2mb 66f 50f
9:20pm  -   -   -  27 34 mph 1029.2mb 66f 50f
8:50pm 7ft 7s 6s 29 36 mph 1028.8mb 65f 49f
7:50pm 7.5ft 8s 6s 27 34 mph 1028.4mb 65f 50f
7:20pm  -   -   -  27 34 mph 1028mb 65f 50f
6:50pm 7ft 7s 6s 27 34 mph 1027.9mb 65f 50f
6:20pm  -   -   -  25 31 mph 1027.7mb 65f 51f
5:50pm 7ft 7s 6s 25 31 mph 1027.4mb 65f 51f
5:20pm  -   -   -  25 29 mph 1027mb 64f 51f
4:50pm 7ft 6s 5s 25 31 mph 1026.8mb 64f 51f